Fowler, California
Current Conditions -  °F | °C
As of 10:53 PM on Wednesday 26 Nov 2014 (Local Time) from KFAT Reporting Station
Haze Haze  
Wind Chill: 49°   Ceiling: Unl
Heat Index: 49°   Visibility: 6mi
Dew Point: 44°   Wind: 0mph
Humidity: 83%   Direction: NA
Pressure: 30.24"   Gusts: NA
Location:  36.63°N, 119.68°W
Report Text: KFAT 270653Z 00000KT 6SM HZ FEW200 09/07 A3024 RMK AO2 SLP240 T00940067
Loading
Personal Weather Stations






























Interactive Weather Map New forecast layout! Learn more

10-Day Weather Forecast

Advertisements
Track Severe Weather on mobile